Time;durP1;ratioP1;P1;durP2;ratioP2;P2;SDS_P1;SDS_P2;PMS_P1;PMS_P2;Temp;Humidity;BMP_temperature;BMP_pressure;BME280_temperature;BME280_humidity;BME280_pressure;Samples;Min_cycle;Max_cycle;Signal;HPM_P1;HPM_P2
2021/12/27 00:02:08;;;;;;;50.60;24.67;;;;;;;;;;5064325;27;97097;-81
2021/12/27 00:04:35;;;;;;;50.45;25.00;;;;;;;;;;5056297;27;96418;-81
2021/12/27 00:07:01;;;;;;;41.72;22.60;;;;;;;;;;5063751;27;95865;-82
2021/12/27 00:09:28;;;;;;;55.15;24.67;;;;;;;;;;5058573;27;97188;-82
2021/12/27 00:11:54;;;;;;;48.60;23.63;;;;;;;;;;5063163;27;96705;-78
2021/12/27 00:14:20;;;;;;;48.45;22.88;;;;;;;;;;5058664;27;96822;-81
2021/12/27 00:16:46;;;;;;;52.65;23.55;;;;;;;;;;5065502;27;95519;-81
2021/12/27 00:19:13;;;;;;;45.92;22.17;;;;;;;;;;5055631;27;96768;-82
2021/12/27 00:21:39;;;;;;;50.35;23.95;;;;;;;;;;5061583;27;96387;-78
2021/12/27 00:24:06;;;;;;;47.30;25.42;;;;;;;;;;5057020;27;96394;-80
2021/12/27 00:26:32;;;;;;;49.25;24.30;;;;;;;;;;5066414;27;96854;-76
2021/12/27 00:28:59;;;;;;;53.90;25.27;;;;;;;;;;5060103;27;97461;-75
2021/12/27 00:31:25;;;;;;;50.50;24.42;;;;;;;;;;5071680;27;95487;-80
2021/12/27 00:33:51;;;;;;;47.45;23.35;;;;;;;;;;5071083;27;95562;-76
2021/12/27 00:36:18;;;;;;;49.97;23.27;;;;;;;;;;5064852;27;96544;-79
2021/12/27 00:38:44;;;;;;;51.85;23.42;;;;;;;;;;5059669;27;96810;-81
2021/12/27 00:41:10;;;;;;;44.88;24.05;;;;;;;;;;5050001;27;97349;-80
2021/12/27 00:43:36;;;;;;;49.15;23.83;;;;;;;;;;5050869;27;95257;-80
2021/12/27 00:46:03;;;;;;;50.35;23.27;;;;;;;;;;5059370;27;96174;-81
2021/12/27 00:48:29;;;;;;;51.97;24.38;;;;;;;;;;5055188;27;97358;-77
2021/12/27 00:50:55;;;;;;;49.17;23.83;;;;;;;;;;5057205;27;95790;-83
2021/12/27 00:53:22;;;;;;;49.90;24.42;;;;;;;;;;5057004;27;96844;-82
2021/12/27 00:55:51;;;;;;;59.30;24.13;;;;;;;;;;5061614;27;97321;-83
2021/12/27 00:58:17;;;;;;;62.88;24.77;;;;;;;;;;5060381;27;95911;-80
2021/12/27 01:00:43;;;;;;;49.85;24.27;;;;;;;;;;5055634;27;97341;-79
2021/12/27 01:03:10;;;;;;;54.55;24.33;;;;;;;;;;5064779;27;96930;-81
2021/12/27 01:05:36;;;;;;;52.50;24.55;;;;;;;;;;5056384;27;96523;-83
2021/12/27 01:08:05;;;;;;;53.00;24.73;;;;;;;;;;5061849;27;96570;-81
2021/12/27 01:18:13;;;;;;;59.30;24.08;;;;;;;;;;5051884;27;96828;-81
2021/12/27 01:20:40;;;;;;;64.15;25.15;;;;;;;;;;5063203;27;96762;-82
2021/12/27 01:23:06;;;;;;;60.17;26.00;;;;;;;;;;5060673;27;95569;-82
2021/12/27 01:25:33;;;;;;;56.35;25.85;;;;;;;;;;5054078;27;96730;-82
2021/12/27 01:27:59;;;;;;;54.58;24.73;;;;;;;;;;5062168;27;97273;-82
2021/12/27 01:30:25;;;;;;;55.72;25.27;;;;;;;;;;5060867;27;95781;-83
2021/12/27 01:32:57;;;;;;;60.47;26.15;;;;;;;;;;5055899;27;97166;-79
2021/12/27 01:35:24;;;;;;;49.40;24.63;;;;;;;;;;5062981;27;97330;-81
2021/12/27 01:37:51;;;;;;;60.53;23.98;;;;;;;;;;5058922;27;95906;-82
2021/12/27 01:40:19;;;;;;;62.70;25.90;;;;;;;;;;5061008;27;95772;-82
2021/12/27 01:43:05;;;;;;;56.88;24.75;;;;;;;;;;5066750;27;97536;-82
2021/12/27 01:45:32;;;;;;;59.20;24.38;;;;;;;;;;5063755;27;96775;-78
2021/12/27 01:47:58;;;;;;;51.63;24.25;;;;;;;;;;5056045;27;95979;-77
2021/12/27 01:50:25;;;;;;;59.17;24.95;;;;;;;;;;5062741;27;95475;-79
2021/12/27 01:52:51;;;;;;;57.97;25.52;;;;;;;;;;5057321;27;96804;-80
2021/12/27 01:55:18;;;;;;;51.60;23.70;;;;;;;;;;5062497;27;97687;-78
2021/12/27 01:57:44;;;;;;;55.28;24.83;;;;;;;;;;5053454;27;95234;-80
2021/12/27 02:00:12;;;;;;;53.30;24.15;;;;;;;;;;5061940;27;97147;-81
2021/12/27 02:02:42;;;;;;;53.50;24.55;;;;;;;;;;5057546;27;97328;-82
2021/12/27 02:05:09;;;;;;;60.47;24.48;;;;;;;;;;5055761;27;95643;-81
2021/12/27 02:07:35;;;;;;;54.28;24.77;;;;;;;;;;5052126;27;97687;-79
2021/12/27 02:10:03;;;;;;;61.70;24.65;;;;;;;;;;5049650;27;95365;-81
2021/12/27 02:12:30;;;;;;;56.95;24.33;;;;;;;;;;5052089;27;97560;-80
2021/12/27 02:14:56;;;;;;;52.35;24.02;;;;;;;;;;5061517;27;97148;-80
2021/12/27 02:17:23;;;;;;;53.80;25.27;;;;;;;;;;5054108;27;95319;-80
2021/12/27 02:19:50;;;;;;;53.17;25.48;;;;;;;;;;5060425;27;99820;-78
2021/12/27 02:22:16;;;;;;;53.22;23.27;;;;;;;;;;5063528;27;97422;-80
2021/12/27 02:24:43;;;;;;;50.20;22.10;;;;;;;;;;5061837;27;95226;-80
2021/12/27 02:27:13;;;;;;;62.25;25.20;;;;;;;;;;5062153;27;97136;-77
2021/12/27 02:29:39;;;;;;;52.30;24.33;;;;;;;;;;5068486;27;95561;-77
2021/12/27 02:32:06;;;;;;;56.50;24.17;;;;;;;;;;5067943;27;96713;-78
2021/12/27 02:34:32;;;;;;;56.53;23.65;;;;;;;;;;5064926;27;97473;-78
2021/12/27 02:36:59;;;;;;;56.38;24.70;;;;;;;;;;5054547;27;95519;-77
2021/12/27 02:39:25;;;;;;;51.60;22.90;;;;;;;;;;5066788;27;97204;-79
2021/12/27 02:41:52;;;;;;;50.53;24.02;;;;;;;;;;5068626;27;96939;-76
2021/12/27 02:44:18;;;;;;;49.60;23.90;;;;;;;;;;5068675;27;95297;-80
2021/12/27 02:46:44;;;;;;;49.72;24.13;;;;;;;;;;5069043;27;96818;-77
2021/12/27 02:49:11;;;;;;;51.40;24.30;;;;;;;;;;5066125;27;95738;-79
2021/12/27 02:51:37;;;;;;;56.83;25.50;;;;;;;;;;5060144;27;97035;-79
2021/12/27 02:54:03;;;;;;;52.35;24.23;;;;;;;;;;5063084;27;97284;-80
2021/12/27 02:56:30;;;;;;;65.47;24.98;;;;;;;;;;5054083;27;95446;-80
2021/12/27 02:58:57;;;;;;;60.22;24.48;;;;;;;;;;5056105;27;96447;-79
2021/12/27 03:01:24;;;;;;;54.53;24.25;;;;;;;;;;5061301;27;97908;-78
2021/12/27 03:03:51;;;;;;;67.43;25.20;;;;;;;;;;5048225;27;95508;-78
2021/12/27 03:06:17;;;;;;;65.43;25.90;;;;;;;;;;5051620;27;97245;-77
2021/12/27 03:08:45;;;;;;;65.05;25.35;;;;;;;;;;5055932;27;97864;-76
2021/12/27 03:11:12;;;;;;;57.40;24.05;;;;;;;;;;5052183;27;97032;-77
2021/12/27 03:13:43;;;;;;;66.53;26.30;;;;;;;;;;5051961;27;97180;-76
2021/12/27 03:16:13;;;;;;;77.72;26.67;;;;;;;;;;5062348;27;95848;-79
2021/12/27 03:18:42;;;;;;;66.90;24.95;;;;;;;;;;5064376;27;97251;-76
2021/12/27 03:21:09;;;;;;;69.43;26.88;;;;;;;;;;5058048;27;97734;-79
2021/12/27 03:23:37;;;;;;;71.97;27.38;;;;;;;;;;5048192;27;95886;-81
2021/12/27 03:26:03;;;;;;;77.05;26.55;;;;;;;;;;5052191;27;97204;-81
2021/12/27 03:28:30;;;;;;;61.85;26.50;;;;;;;;;;5056224;27;97282;-77
2021/12/27 03:30:57;;;;;;;84.93;28.70;;;;;;;;;;5059519;27;95931;-81
2021/12/27 03:33:24;;;;;;;71.07;27.25;;;;;;;;;;5060539;27;97347;-81
2021/12/27 03:36:00;;;;;;;57.97;24.17;;;;;;;;;;5051516;27;95603;-80
2021/12/27 03:38:27;;;;;;;70.03;26.27;;;;;;;;;;5061120;27;96872;-78
2021/12/27 03:40:54;;;;;;;84.28;27.15;;;;;;;;;;5060349;27;97306;-80
2021/12/27 03:43:20;;;;;;;71.05;26.40;;;;;;;;;;5051306;27;95886;-79
2021/12/27 03:45:46;;;;;;;77.72;27.80;;;;;;;;;;5059782;27;97127;-78
2021/12/27 03:48:13;;;;;;;87.38;28.23;;;;;;;;;;5065988;27;97737;-80
2021/12/27 03:50:39;;;;;;;86.65;27.52;;;;;;;;;;5062425;27;95485;-77
2021/12/27 03:53:06;;;;;;;83.50;27.30;;;;;;;;;;5064708;27;96579;-78
2021/12/27 03:55:33;;;;;;;78.45;28.00;;;;;;;;;;5056667;27;95232;-79
2021/12/27 03:58:24;;;;;;;76.95;28.25;;;;;;;;;;5058681;27;96703;-78
2021/12/27 04:03:21;;;;;;;88.82;26.85;;;;;;;;;;5054861;27;95209;-79
2021/12/27 04:05:47;;;;;;;89.10;27.75;;;;;;;;;;5054256;27;97538;-80
2021/12/27 04:08:14;;;;;;;77.88;27.83;;;;;;;;;;5053343;27;97706;-78
2021/12/27 04:10:41;;;;;;;82.32;28.42;;;;;;;;;;5060848;27;95359;-79
2021/12/27 04:13:09;;;;;;;76.28;26.25;;;;;;;;;;5061718;27;97053;-79
2021/12/27 04:15:36;;;;;;;71.50;25.67;;;;;;;;;;5064023;27;95581;-79
2021/12/27 04:18:03;;;;;;;75.80;28.38;;;;;;;;;;5055246;27;96908;-78
2021/12/27 04:20:29;;;;;;;91.68;26.83;;;;;;;;;;5054597;27;97167;-77
2021/12/27 04:22:55;;;;;;;53.03;23.23;;;;;;;;;;5060027;27;95399;-77
2021/12/27 04:25:22;;;;;;;84.88;27.17;;;;;;;;;;5062494;27;97228;-77
2021/12/27 04:27:49;;;;;;;82.15;26.92;;;;;;;;;;5055707;27;97120;-78
2021/12/27 04:30:16;;;;;;;75.90;27.05;;;;;;;;;;5062559;27;95481;-77
2021/12/27 04:32:45;;;;;;;74.82;27.88;;;;;;;;;;5050625;27;97629;-79
2021/12/27 04:35:12;;;;;;;76.90;25.77;;;;;;;;;;5056569;27;97653;-78
2021/12/27 04:37:39;;;;;;;70.70;25.52;;;;;;;;;;5053668;27;97259;-77
2021/12/27 04:40:07;;;;;;;66.68;25.67;;;;;;;;;;5052977;27;97316;-76
2021/12/27 04:42:34;;;;;;;65.60;25.15;;;;;;;;;;5057941;27;95360;-78
2021/12/27 04:45:00;;;;;;;57.95;23.77;;;;;;;;;;5056883;27;97087;-77
2021/12/27 04:47:27;;;;;;;69.05;25.10;;;;;;;;;;5069081;27;97316;-78
2021/12/27 04:49:53;;;;;;;79.50;26.48;;;;;;;;;;5066251;27;95234;-78
2021/12/27 04:52:20;;;;;;;75.15;25.77;;;;;;;;;;5053982;27;97040;-78
2021/12/27 04:54:46;;;;;;;67.45;25.75;;;;;;;;;;5055556;27;97790;-78
2021/12/27 04:57:13;;;;;;;62.38;24.13;;;;;;;;;;5059236;27;95402;-79
2021/12/27 04:59:39;;;;;;;63.63;24.63;;;;;;;;;;5054697;27;97604;-76
2021/12/27 05:02:05;;;;;;;52.60;23.45;;;;;;;;;;5064019;27;95240;-80
2021/12/27 05:04:32;;;;;;;53.45;22.08;;;;;;;;;;5053588;27;96881;-79
2021/12/27 05:06:58;;;;;;;56.85;23.83;;;;;;;;;;5063115;27;97162;-78
2021/12/27 05:09:25;;;;;;;69.38;24.00;;;;;;;;;;5054860;27;96088;-79
2021/12/27 05:11:51;;;;;;;63.60;23.63;;;;;;;;;;5065702;27;96974;-78
2021/12/27 05:14:17;;;;;;;75.40;25.38;;;;;;;;;;5060011;27;97356;-79
2021/12/27 05:16:48;;;;;;;68.70;24.48;;;;;;;;;;5061287;27;95413;-78
2021/12/27 05:19:16;;;;;;;75.25;24.30;;;;;;;;;;5071842;27;95358;-78
2021/12/27 05:21:43;;;;;;;80.75;24.70;;;;;;;;;;5070293;27;95500;-78
2021/12/27 05:24:09;;;;;;;72.07;25.05;;;;;;;;;;5060802;27;97658;-79
2021/12/27 05:26:35;;;;;;;82.38;25.23;;;;;;;;;;5054051;27;97302;-77
2021/12/27 05:29:02;;;;;;;81.80;25.83;;;;;;;;;;5053441;27;96666;-78
2021/12/27 05:31:32;;;;;;;100.47;25.58;;;;;;;;;;5052300;27;97099;-77
2021/12/27 05:33:59;;;;;;;89.28;25.95;;;;;;;;;;5060333;27;96545;-78
2021/12/27 05:36:25;;;;;;;109.35;25.80;;;;;;;;;;5050804;27;95709;-78
2021/12/27 05:38:52;;;;;;;92.47;25.05;;;;;;;;;;5058338;27;97231;-81
2021/12/27 05:41:19;;;;;;;109.68;26.80;;;;;;;;;;5054836;27;97351;-80
2021/12/27 05:43:45;;;;;;;92.28;25.83;;;;;;;;;;5056444;27;96811;-79
2021/12/27 05:46:11;;;;;;;113.95;27.08;;;;;;;;;;5055837;27;97735;-78
2021/12/27 05:48:38;;;;;;;88.88;26.70;;;;;;;;;;5057377;27;96717;-79
2021/12/27 05:51:13;;;;;;;82.60;25.10;;;;;;;;;;5058597;27;96773;-77
2021/12/27 05:53:40;;;;;;;108.15;26.42;;;;;;;;;;5056732;27;97350;-77
2021/12/27 05:56:06;;;;;;;79.50;25.50;;;;;;;;;;5063793;27;95812;-77
2021/12/27 05:58:32;;;;;;;93.60;26.50;;;;;;;;;;5057145;27;97281;-78
2021/12/27 06:00:59;;;;;;;112.90;27.75;;;;;;;;;;5056382;27;97167;-77
2021/12/27 06:03:25;;;;;;;126.95;27.08;;;;;;;;;;5064809;27;96633;-77
2021/12/27 06:05:51;;;;;;;108.13;26.80;;;;;;;;;;5052506;27;97561;-77
2021/12/27 06:08:18;;;;;;;87.50;26.60;;;;;;;;;;5055799;27;95110;-77
2021/12/27 06:10:44;;;;;;;79.85;25.13;;;;;;;;;;5059342;27;96048;-78
2021/12/27 06:13:10;;;;;;;86.78;26.23;;;;;;;;;;5053235;27;97611;-78
2021/12/27 06:15:37;;;;;;;86.30;26.83;;;;;;;;;;5054850;27;95313;-78
2021/12/27 06:18:03;;;;;;;106.75;26.67;;;;;;;;;;5063303;27;96784;-78
2021/12/27 06:20:29;;;;;;;64.85;25.00;;;;;;;;;;5060689;27;97084;-75
2021/12/27 06:22:57;;;;;;;109.57;26.52;;;;;;;;;;5065440;27;95337;-78
2021/12/27 06:25:23;;;;;;;171.18;29.88;;;;;;;;;;5062918;27;97430;-78
2021/12/27 06:27:50;;;;;;;164.35;28.33;;;;;;;;;;5053422;27;95575;-78
2021/12/27 06:30:16;;;;;;;62.78;24.50;;;;;;;;;;5066357;27;97365;-79
2021/12/27 06:32:43;;;;;;;174.32;30.85;;;;;;;;;;5063821;27;97489;-79
2021/12/27 06:35:11;;;;;;;160.82;29.90;;;;;;;;;;5054263;27;95256;-76
2021/12/27 06:37:40;;;;;;;159.25;31.50;;;;;;;;;;5051846;27;97846;-76
2021/12/27 06:40:07;;;;;;;155.73;28.63;;;;;;;;;;5049747;27;97369;-79
2021/12/27 06:42:34;;;;;;;99.65;26.67;;;;;;;;;;5058824;27;95265;-76
2021/12/27 06:45:00;;;;;;;121.07;27.52;;;;;;;;;;5059501;27;96913;-78
2021/12/27 06:47:26;;;;;;;110.45;27.65;;;;;;;;;;5062439;27;95259;-80
2021/12/27 06:49:53;;;;;;;191.82;31.60;;;;;;;;;;5056320;27;97204;-76
2021/12/27 06:52:20;;;;;;;96.72;26.85;;;;;;;;;;5054891;27;97341;-78
2021/12/27 06:54:46;;;;;;;156.35;27.35;;;;;;;;;;5058431;27;96475;-80
2021/12/27 06:57:12;;;;;;;147.35;29.77;;;;;;;;;;5057089;27;96841;-80
2021/12/27 06:59:43;;;;;;;175.93;29.05;;;;;;;;;;5049415;27;97146;-78
2021/12/27 07:02:09;;;;;;;124.22;28.27;;;;;;;;;;5055639;27;95378;-77
2021/12/27 07:04:36;;;;;;;70.53;24.85;;;;;;;;;;5053906;27;96919;-76
2021/12/27 07:07:02;;;;;;;227.25;30.80;;;;;;;;;;5061960;27;97318;-76
2021/12/27 07:09:29;;;;;;;196.70;29.80;;;;;;;;;;5058828;27;96818;-80
2021/12/27 07:11:55;;;;;;;208.68;30.08;;;;;;;;;;5050448;27;97527;-77
2021/12/27 07:14:26;;;;;;;157.60;29.63;;;;;;;;;;5051872;27;95280;-75
2021/12/27 07:16:53;;;;;;;139.25;28.23;;;;;;;;;;5057174;27;96778;-78
2021/12/27 07:19:19;;;;;;;205.43;31.55;;;;;;;;;;5061566;27;97492;-79
2021/12/27 07:21:45;;;;;;;278.13;33.35;;;;;;;;;;5054212;27;96519;-78
2021/12/27 07:24:12;;;;;;;186.23;30.15;;;;;;;;;;5052620;27;96764;-77
2021/12/27 07:26:40;;;;;;;134.90;26.88;;;;;;;;;;5055913;27;97814;-79
2021/12/27 07:29:06;;;;;;;235.23;31.98;;;;;;;;;;5053591;27;95765;-79
2021/12/27 07:31:33;;;;;;;144.77;29.23;;;;;;;;;;5061225;27;97343;-77
2021/12/27 07:34:02;;;;;;;154.10;29.50;;;;;;;;;;5062265;27;95868;-75
2021/12/27 07:36:30;;;;;;;325.30;35.08;;;;;;;;;;5053324;27;98558;-77
2021/12/27 07:38:57;;;;;;;148.75;30.42;;;;;;;;;;5052930;27;96635;-78
2021/12/27 07:41:23;;;;;;;95.47;27.42;;;;;;;;;;5049463;27;96619;-80
2021/12/27 07:43:50;;;;;;;254.80;34.88;;;;;;;;;;5060396;27;96865;-78
2021/12/27 17:37:32;;;;;;;34.78;17.88;;;;;;;;;;5058359;27;1334587;-76
2021/12/27 17:39:59;;;;;;;33.03;18.42;;;;;;;;;;5077601;27;97264;-77
2021/12/27 17:42:25;;;;;;;32.13;18.63;;;;;;;;;;5066399;27;95429;-75
2021/12/27 17:44:51;;;;;;;37.58;18.67;;;;;;;;;;5073664;27;96785;-75
2021/12/27 17:47:18;;;;;;;35.67;19.60;;;;;;;;;;5063626;27;97567;-78
2021/12/27 17:49:44;;;;;;;34.13;18.77;;;;;;;;;;5072436;27;96450;-75
2021/12/27 17:52:11;;;;;;;33.75;18.80;;;;;;;;;;5076377;27;96963;-75
2021/12/27 17:54:37;;;;;;;30.05;18.55;;;;;;;;;;5075552;27;96146;-76
2021/12/27 17:57:06;;;;;;;29.52;16.27;;;;;;;;;;5076635;27;95735;-75
2021/12/27 17:59:50;;;;;;;29.65;17.58;;;;;;;;;;5076274;27;97578;-76
2021/12/27 18:02:17;;;;;;;29.88;17.10;;;;;;;;;;5080296;27;95688;-76
2021/12/27 18:04:45;;;;;;;28.17;17.02;;;;;;;;;;5079486;27;97056;-76
2021/12/27 18:07:11;;;;;;;28.90;15.48;;;;;;;;;;5083455;27;97317;-75
2021/12/27 18:09:40;;;;;;;30.08;16.30;;;;;;;;;;5079601;27;96959;-76
2021/12/27 18:12:07;;;;;;;30.75;15.57;;;;;;;;;;5071799;27;96591;-75
2021/12/27 18:14:34;;;;;;;25.85;15.00;;;;;;;;;;5080980;27;97322;-76
2021/12/27 18:17:01;;;;;;;24.88;16.30;;;;;;;;;;5073528;27;95691;-75
2021/12/27 18:19:27;;;;;;;31.65;17.15;;;;;;;;;;5083650;27;96798;-76
2021/12/27 18:21:53;;;;;;;30.70;18.27;;;;;;;;;;5079525;27;95922;-75
2021/12/27 18:24:19;;;;;;;34.45;17.35;;;;;;;;;;5077338;27;96779;-77
2021/12/27 18:26:46;;;;;;;28.67;16.67;;;;;;;;;;5069231;27;97301;-76
2021/12/27 18:29:12;;;;;;;32.58;16.52;;;;;;;;;;5079139;27;95806;-76
2021/12/27 18:31:40;;;;;;;30.48;16.10;;;;;;;;;;5080699;27;97465;-76
2021/12/27 18:34:07;;;;;;;27.58;15.90;;;;;;;;;;5080512;27;97463;-76
2021/12/27 18:36:34;;;;;;;31.10;15.88;;;;;;;;;;5069308;27;95177;-78
2021/12/27 18:39:01;;;;;;;30.02;15.43;;;;;;;;;;5066861;27;96767;-77
2021/12/27 18:41:27;;;;;;;27.23;14.68;;;;;;;;;;5070138;27;97816;-79
2021/12/27 18:43:55;;;;;;;25.88;14.48;;;;;;;;;;5076402;27;96693;-76
2021/12/27 18:46:22;;;;;;;33.85;14.68;;;;;;;;;;5081551;27;97331;-78
2021/12/27 18:48:49;;;;;;;27.58;14.65;;;;;;;;;;5063199;27;95526;-76
2021/12/27 18:51:16;;;;;;;22.98;13.70;;;;;;;;;;5067123;27;95769;-78
2021/12/27 18:53:42;;;;;;;28.23;14.77;;;;;;;;;;5067053;27;97362;-76
2021/12/27 18:56:12;;;;;;;30.25;14.10;;;;;;;;;;5066946;27;95420;-77
2021/12/27 18:58:39;;;;;;;22.00;12.88;;;;;;;;;;5066843;27;96978;-76
2021/12/27 19:01:06;;;;;;;24.80;14.02;;;;;;;;;;5067612;27;97694;-76
2021/12/27 19:03:32;;;;;;;23.30;13.60;;;;;;;;;;5066696;27;95890;-76
2021/12/27 19:05:59;;;;;;;27.65;13.88;;;;;;;;;;5060299;27;97309;-76
2021/12/27 19:08:25;;;;;;;24.65;13.73;;;;;;;;;;5065730;27;96981;-77
2021/12/27 19:10:52;;;;;;;23.88;13.50;;;;;;;;;;5069022;27;96746;-77
2021/12/27 19:13:18;;;;;;;23.52;13.18;;;;;;;;;;5069362;27;97721;-76
2021/12/27 19:15:45;;;;;;;23.52;12.02;;;;;;;;;;5059526;27;97151;-78
2021/12/27 19:18:11;;;;;;;22.02;12.93;;;;;;;;;;5068646;27;97225;-77
2021/12/27 19:20:40;;;;;;;22.10;12.77;;;;;;;;;;5069738;27;97416;-75
2021/12/27 19:23:06;;;;;;;21.13;11.93;;;;;;;;;;5070911;27;95352;-77
2021/12/27 19:25:33;;;;;;;21.10;12.65;;;;;;;;;;5071088;27;96763;-74
2021/12/27 19:28:00;;;;;;;21.85;12.18;;;;;;;;;;5061974;27;95466;-80
2021/12/27 19:30:27;;;;;;;23.05;12.57;;;;;;;;;;5070928;27;96550;-79
2021/12/27 19:32:53;;;;;;;22.13;12.90;;;;;;;;;;5069532;27;96636;-78
2021/12/27 19:35:21;;;;;;;21.42;12.45;;;;;;;;;;5067062;27;95462;-76
2021/12/27 19:37:50;;;;;;;23.33;13.82;;;;;;;;;;5056402;27;96909;-80
2021/12/27 19:40:16;;;;;;;24.60;14.00;;;;;;;;;;5064359;27;97275;-77
2021/12/27 19:42:43;;;;;;;25.33;14.82;;;;;;;;;;5070469;27;95368;-81
2021/12/27 19:45:09;;;;;;;26.15;15.15;;;;;;;;;;5054361;27;96824;-79
2021/12/27 19:47:36;;;;;;;25.65;14.45;;;;;;;;;;5065952;27;95512;-79
2021/12/27 19:50:03;;;;;;;23.38;14.90;;;;;;;;;;5063730;27;96805;-80
2021/12/27 19:52:30;;;;;;;24.92;15.63;;;;;;;;;;5053482;27;97821;-79
2021/12/27 19:54:56;;;;;;;25.85;15.77;;;;;;;;;;5063995;27;95290;-79
2021/12/27 19:57:23;;;;;;;23.33;14.77;;;;;;;;;;5063945;27;96771;-79
2021/12/27 19:59:49;;;;;;;27.67;15.63;;;;;;;;;;5054387;27;97287;-78
2021/12/27 20:02:20;;;;;;;24.77;15.48;;;;;;;;;;5064267;27;97305;-79
2021/12/27 20:04:47;;;;;;;26.70;16.00;;;;;;;;;;5057605;27;97280;-80
2021/12/27 20:07:13;;;;;;;25.60;16.60;;;;;;;;;;5063817;27;98130;-81
2021/12/27 20:09:39;;;;;;;27.92;15.95;;;;;;;;;;5060491;27;96708;-78
2021/12/27 20:12:06;;;;;;;30.30;16.73;;;;;;;;;;5056664;27;97423;-80
2021/12/27 20:14:33;;;;;;;29.52;17.05;;;;;;;;;;5056206;27;95268;-80
2021/12/27 20:16:59;;;;;;;29.95;16.27;;;;;;;;;;5061706;27;97040;-80
2021/12/27 20:19:26;;;;;;;31.77;17.13;;;;;;;;;;5050392;27;97508;-81
2021/12/27 20:21:52;;;;;;;34.25;18.67;;;;;;;;;;5057279;27;95349;-76
2021/12/27 20:24:19;;;;;;;29.65;17.00;;;;;;;;;;5056391;27;96701;-77
2021/12/27 20:26:46;;;;;;;34.92;19.77;;;;;;;;;;5065957;27;97984;-78
2021/12/27 20:29:12;;;;;;;35.72;20.00;;;;;;;;;;5062827;27;95752;-75
2021/12/27 20:31:39;;;;;;;38.80;20.27;;;;;;;;;;5067760;27;97773;-78
2021/12/27 20:34:06;;;;;;;34.45;18.50;;;;;;;;;;5065942;27;95506;-75
2021/12/27 20:36:32;;;;;;;32.13;18.35;;;;;;;;;;5056534;27;96731;-75
2021/12/27 20:38:58;;;;;;;31.83;19.25;;;;;;;;;;5067949;27;97703;-75
2021/12/27 20:41:25;;;;;;;31.33;18.42;;;;;;;;;;5067955;27;96350;-76
2021/12/27 20:43:51;;;;;;;44.08;20.02;;;;;;;;;;5064114;27;97495;-77
2021/12/27 20:46:18;;;;;;;38.60;19.52;;;;;;;;;;5055565;27;97627;-77
2021/12/27 20:48:45;;;;;;;42.78;20.67;;;;;;;;;;5068057;27;95351;-76
2021/12/27 20:51:11;;;;;;;39.08;20.95;;;;;;;;;;5070494;27;96837;-75
2021/12/27 20:53:37;;;;;;;38.78;20.50;;;;;;;;;;5068635;27;95326;-75
2021/12/27 20:56:04;;;;;;;38.67;21.00;;;;;;;;;;5059446;27;97874;-75
2021/12/27 20:58:30;;;;;;;40.95;20.23;;;;;;;;;;5059466;27;97610;-75
2021/12/27 21:01:01;;;;;;;38.17;20.58;;;;;;;;;;5067902;27;95224;-75
2021/12/27 21:03:27;;;;;;;41.13;20.67;;;;;;;;;;5067502;27;96823;-79
2021/12/27 21:05:54;;;;;;;42.85;21.75;;;;;;;;;;5065613;27;97516;-77
2021/12/27 21:08:21;;;;;;;42.30;21.50;;;;;;;;;;5055435;27;96705;-76
2021/12/27 21:10:49;;;;;;;45.33;22.45;;;;;;;;;;5064576;27;97112;-77
2021/12/27 21:13:16;;;;;;;43.15;21.48;;;;;;;;;;5063132;27;97616;-76
2021/12/27 21:15:43;;;;;;;42.65;22.83;;;;;;;;;;5067765;27;96795;-79
2021/12/27 21:18:25;;;;;;;42.85;22.60;;;;;;;;;;5061967;27;97499;-77
2021/12/27 21:20:52;;;;;;;43.40;22.38;;;;;;;;;;5065893;27;96417;-77
2021/12/27 21:23:18;;;;;;;45.03;21.63;;;;;;;;;;5061547;27;97304;-77
2021/12/27 21:25:45;;;;;;;43.55;22.10;;;;;;;;;;5058421;27;96348;-77
2021/12/27 21:28:13;;;;;;;38.60;20.55;;;;;;;;;;5065730;27;95718;-77
2021/12/27 21:30:40;;;;;;;42.00;22.77;;;;;;;;;;5067573;27;97416;-80
2021/12/27 21:33:07;;;;;;;39.70;21.55;;;;;;;;;;5062394;27;97788;-76
2021/12/27 21:35:33;;;;;;;44.08;22.33;;;;;;;;;;5071183;27;95578;-78
2021/12/27 21:38:00;;;;;;;48.47;22.73;;;;;;;;;;5067524;27;97337;-76
2021/12/27 21:40:27;;;;;;;48.90;24.90;;;;;;;;;;5067572;27;95647;-75
2021/12/27 21:42:53;;;;;;;47.67;24.23;;;;;;;;;;5063545;27;96961;-76
2021/12/27 21:45:21;;;;;;;48.65;23.58;;;;;;;;;;5061395;27;97342;-75
2021/12/27 21:47:48;;;;;;;45.42;23.48;;;;;;;;;;5066433;27;95520;-76
2021/12/27 21:50:17;;;;;;;55.17;24.38;;;;;;;;;;5068695;27;96833;-75
2021/12/27 21:52:45;;;;;;;52.28;25.17;;;;;;;;;;5067647;27;97568;-76
2021/12/27 21:55:12;;;;;;;52.38;25.02;;;;;;;;;;5071218;27;95784;-77
2021/12/27 21:57:39;;;;;;;51.50;25.17;;;;;;;;;;5068126;27;97276;-76
2021/12/27 22:00:07;;;;;;;54.35;26.17;;;;;;;;;;5067716;27;95489;-77
2021/12/27 22:02:33;;;;;;;51.55;26.08;;;;;;;;;;5068281;27;96670;-76
2021/12/27 22:05:00;;;;;;;47.97;26.48;;;;;;;;;;5060438;27;97429;-76
2021/12/27 22:07:27;;;;;;;51.42;24.98;;;;;;;;;;5067605;27;95426;-77
2021/12/27 22:09:53;;;;;;;58.00;25.25;;;;;;;;;;5068293;27;96812;-76
2021/12/27 22:12:20;;;;;;;53.38;24.95;;;;;;;;;;5066500;27;96111;-77
2021/12/27 22:14:46;;;;;;;59.22;25.25;;;;;;;;;;5061658;27;95658;-77
2021/12/27 22:17:13;;;;;;;59.40;26.83;;;;;;;;;;5071009;27;97069;-79
2021/12/27 22:19:39;;;;;;;59.00;26.98;;;;;;;;;;5068475;27;95432;-78
2021/12/27 22:22:05;;;;;;;65.88;27.75;;;;;;;;;;5067105;27;97192;-75
2021/12/27 22:24:32;;;;;;;58.28;26.33;;;;;;;;;;5064687;27;97629;-77
2021/12/27 22:26:58;;;;;;;60.38;27.27;;;;;;;;;;5070583;27;95930;-80
2021/12/27 22:29:24;;;;;;;60.47;26.63;;;;;;;;;;5071212;27;96892;-80
2021/12/27 22:31:51;;;;;;;49.83;24.52;;;;;;;;;;5071450;27;97297;-81
2021/12/27 22:34:18;;;;;;;57.20;26.00;;;;;;;;;;5070259;27;95797;-79
2021/12/27 22:36:45;;;;;;;61.45;26.23;;;;;;;;;;5070826;27;96766;-78
2021/12/27 22:39:11;;;;;;;57.42;25.95;;;;;;;;;;5074168;27;97888;-81
2021/12/27 22:41:38;;;;;;;69.38;30.63;;;;;;;;;;5071709;27;96779;-78
2021/12/27 22:44:04;;;;;;;57.60;25.88;;;;;;;;;;5065995;27;97291;-78
2021/12/27 22:46:31;;;;;;;65.35;26.95;;;;;;;;;;5071399;27;95381;-77
2021/12/27 22:48:57;;;;;;;54.72;26.27;;;;;;;;;;5071658;27;97084;-79
2021/12/27 22:51:23;;;;;;;85.93;30.55;;;;;;;;;;5062025;27;97333;-79
2021/12/27 22:53:50;;;;;;;65.65;25.52;;;;;;;;;;5067613;27;96027;-77
2021/12/27 22:56:16;;;;;;;63.15;26.90;;;;;;;;;;5070633;27;97151;-80
2021/12/27 22:58:42;;;;;;;52.58;25.05;;;;;;;;;;5071256;27;97406;-77
2021/12/27 23:01:10;;;;;;;60.75;25.27;;;;;;;;;;5073989;27;95360;-77
2021/12/27 23:03:36;;;;;;;57.25;27.27;;;;;;;;;;5070156;27;97371;-79
2021/12/27 23:06:04;;;;;;;63.90;25.77;;;;;;;;;;5066521;27;95309;-81
2021/12/27 23:08:31;;;;;;;64.78;26.80;;;;;;;;;;5070504;27;96757;-79
2021/12/27 23:10:57;;;;;;;53.35;24.83;;;;;;;;;;5069273;27;96414;-78
2021/12/27 23:13:24;;;;;;;61.10;26.60;;;;;;;;;;5070883;27;95444;-80
2021/12/27 23:15:50;;;;;;;68.32;27.00;;;;;;;;;;5069892;27;96830;-78
2021/12/27 23:18:17;;;;;;;57.55;25.10;;;;;;;;;;5070314;27;97656;-78
2021/12/27 23:20:43;;;;;;;64.47;25.90;;;;;;;;;;5070951;27;95353;-77
2021/12/27 23:23:10;;;;;;;60.80;26.65;;;;;;;;;;5073368;27;96779;-80
2021/12/27 23:25:37;;;;;;;55.65;25.25;;;;;;;;;;5069607;27;95743;-78
2021/12/27 23:28:04;;;;;;;64.20;26.17;;;;;;;;;;5070792;27;96850;-80
2021/12/27 23:30:34;;;;;;;57.05;24.63;;;;;;;;;;5059063;27;97611;-81
2021/12/27 23:33:09;;;;;;;56.80;24.67;;;;;;;;;;5069403;27;96123;-80
2021/12/27 23:35:41;;;;;;;60.30;24.80;;;;;;;;;;5061964;27;97101;-77
2021/12/27 23:38:07;;;;;;;59.45;24.50;;;;;;;;;;5067103;27;97693;-81
2021/12/27 23:40:34;;;;;;;61.88;25.30;;;;;;;;;;5069622;27;97051;-80
2021/12/27 23:43:00;;;;;;;59.03;22.70;;;;;;;;;;5070522;27;95651;-80
2021/12/27 23:45:26;;;;;;;56.47;24.63;;;;;;;;;;5073157;27;97331;-77
2021/12/27 23:47:53;;;;;;;58.05;24.73;;;;;;;;;;5070371;27;96937;-78
2021/12/27 23:50:21;;;;;;;48.95;23.60;;;;;;;;;;5064948;27;97665;-78
2021/12/27 23:52:50;;;;;;;63.45;24.23;;;;;;;;;;5068965;27;95451;-76
2021/12/27 23:55:18;;;;;;;68.25;23.83;;;;;;;;;;5070502;27;96894;-78
2021/12/27 23:57:52;;;;;;;59.92;24.77;;;;;;;;;;5070362;27;97085;-77
